Terminal Aerodrome Forecast
Issued by NWS Cleveland, OH

Home | Current Version | Previous Version | Text Only | Print | Product List | Glossary On
Versions: 1 2 3 4 5 6 7 8 9 10 11 12 13 14 15 16 17 18 19
911
FTUS41 KCLE 182334
TAFYNG
TAF
KYNG 182334Z 1900/1924 21017G26KT 3SM SHRA OVC035
     FM190200 26015G25KT 3SM -SHRA OVC015
     FM190400 29018G30KT 4SM -SHRA OVC007
     FM190800 31020G32KT 6SM -SHRA OVC004
     FM191300 31015G25KT P6SM -SHRA OVC010
     FM191600 28015G25KT P6SM VCSH OVC015=

USA.gov is the U.S. government's official web portal to all federal, state and local government web resources and services.